Aledo, IL

4:47 PM CDT on August 20, 2014 (GMT -0500)
Galesburg Municipal | Change Station
CLOSE
Current Station
Airport
Location: Galesburg,
Elevation: 764 ft
Nearby Weather Stations

Elev 764 ft 40.94 °N, 90.43 °W | Updated 12 minutes ago

Light Rain
Light Rain
76 °F
Feels Like 76 °F
N
7
Wind Variable Wind from SSE

Today
High -- | Low -- °F
--% Chance of Precip.
Yesterday
High -- | Low -- °F
Precip. -- in
6:17 AM 7:54 PM
Waning Crescent, 19% visible
Pressure 29.93 in
Visibility 10.0 miles
Clouds Scattered Clouds 2500 ft
Scattered Clouds 5500 ft
Mostly Cloudy 11000 ft
Dew Point 70 °F
Humidity 82%
Rainfall 0.03 in
Snow Depth Not available.
UV 2 out of 12
Pollen 9.80 out of 12
Air Quality Not available.
Flu Activity Not available.
METAR KGBG 202135Z AUTO 16006KT 10SM -RA SCT025 SCT055 BKN110 25/21 A2993 RMK AO2 T02450213

More Conditions Fewer Conditions

Pressure 29.93 in
Visibility 10.0 miles
Clouds Scattered Clouds 2500 ft
Scattered Clouds 5500 ft
Mostly Cloudy 11000 ft
Dew Point 70 °F
Humidity 82%
Rainfall 0.03 in
Snow Depth Not available.
UV 2 out of 12
Pollen 9.80 out of 12
Air Quality Not available.
Flu Activity Not available.
METAR KGBG 202135Z AUTO 16006KT 10SM -RA SCT025 SCT055 BKN110 25/21 A2993 RMK AO2 T02450213

More Conditions Fewer Conditions

10-Day Weather Forecast

Almanac

Astronomy

Aug. 20, 2014 Rise Set
Actual Time 6:17 AM CDT 7:54 PM CDT
Civil Twilight 5:48 AM CDT 8:23 PM CDT
Nautical Twilight 5:12 AM CDT 8:58 PM CDT
Astronomical Twilight 4:35 AM CDT 9:36 PM CDT
Moon 1:56 AM CDT 4:40 PM CDT
Length of Visible Light 14h 35m
Length of Day
13h 37m
Tomorrow will be 2m 30s shorter.
Waning Crescent, 19% of the Moon is Illuminated
Today
Waning Crescent
Aug 25
New
Sep 2
First Quarter
Sep 8
Full
Sep 15
Last Quarter

Today's Extremes

State Highs State Lows

Community

WunderPhotos

Upload Photos

1,745,768 photos uploaded!

Nearby

Snow Depth

Station Depth Elevation
No new snow has been reported.

Earthquake Activity

City Distance Mag. Time & Date
No recent earthquake activity has been reported nearby.
Minimum magnitude displayed is 2.5.

Coastal Water Temperatures

Place Temperature
No Stations Reporting

Nearby Weather Stations